createdAt,value
2019-04-27T00:01:51.795Z,15.03
2019-04-27T00:04:29.473Z,15.67
2019-04-27T00:07:02.973Z,17.63
2019-04-27T00:09:43.235Z,17.10
2019-04-27T00:12:11.097Z,16.43
2019-04-27T00:14:39.363Z,15.20
2019-04-27T00:17:45.873Z,16.10
2019-04-27T00:20:22.351Z,16.00
2019-04-27T00:22:54.496Z,16.00
2019-04-27T00:25:22.979Z,13.27
2019-04-27T00:27:51.328Z,15.80
2019-04-27T00:30:19.693Z,14.33
2019-04-27T00:32:48.216Z,16.10
2019-04-27T00:35:23.382Z,15.40
2019-04-27T00:38:14.943Z,14.13
2019-04-27T00:40:48.413Z,13.30
2019-04-27T00:43:16.956Z,13.93
2019-04-27T00:45:45.647Z,15.77
2019-04-27T00:48:14.232Z,14.33
2019-04-27T00:50:43.910Z,13.87
2019-04-27T00:53:13.397Z,13.83
2019-04-27T00:55:59.028Z,15.17
2019-04-27T00:58:35.339Z,13.63
2019-04-27T01:01:23.357Z,14.57
2019-04-27T01:04:00.200Z,14.07
2019-04-27T01:06:30.136Z,13.87
2019-04-27T01:08:58.757Z,14.03
2019-04-27T01:11:26.993Z,13.13
2019-04-27T01:13:55.571Z,14.80
2019-04-27T01:16:24.329Z,14.53
2019-04-27T01:18:52.253Z,15.43
2019-04-27T01:21:21.900Z,15.70
2019-04-27T01:23:50.241Z,14.20
2019-04-27T01:26:29.849Z,16.63
2019-04-27T01:29:10.452Z,15.47
2019-04-27T01:31:39.733Z,15.50
2019-04-27T01:34:09.249Z,18.27
2019-04-27T01:36:39.167Z,13.43
2019-04-27T01:39:12.381Z,16.57
2019-04-27T01:41:40.270Z,14.33
2019-04-27T01:44:09.233Z,15.00
2019-04-27T01:46:39.484Z,13.50
2019-04-27T01:49:09.170Z,16.27
2019-04-27T01:51:39.082Z,13.87
2019-04-27T01:54:10.340Z,13.20
2019-04-27T01:56:39.523Z,13.67
2019-04-27T01:59:08.675Z,14.03
2019-04-27T02:01:54.862Z,14.90
2019-04-27T02:04:29.404Z,13.60
2019-04-27T02:06:59.035Z,13.80
2019-04-27T02:09:26.882Z,13.20
2019-04-27T02:11:55.560Z,15.50
2019-04-27T02:14:25.660Z,14.20
2019-04-27T02:16:54.379Z,14.60
2019-04-27T02:19:22.423Z,14.33
2019-04-27T02:21:51.563Z,13.40
2019-04-27T02:24:19.974Z,14.83
2019-04-27T02:26:49.822Z,10.93
2019-04-27T02:29:39.062Z,12.17
2019-04-27T02:32:20.140Z,12.40
2019-04-27T02:34:56.971Z,11.90
2019-04-27T02:37:25.754Z,12.20
2019-04-27T02:39:55.068Z,13.37
2019-04-27T02:42:25.147Z,19.07
2019-04-27T02:44:54.063Z,13.53
2019-04-27T02:47:22.377Z,14.60
2019-04-27T02:49:51.036Z,11.10
2019-04-27T02:52:33.491Z,13.27
2019-04-27T02:55:05.718Z,15.07
2019-04-27T02:57:34.395Z,13.40
2019-04-27T03:00:03.108Z,10.60
2019-04-27T03:02:43.690Z,12.07
2019-04-27T03:05:19.671Z,12.83
2019-04-27T03:07:50.342Z,11.67
2019-04-27T03:10:19.908Z,11.47
2019-04-27T03:12:54.212Z,11.23
2019-04-27T03:15:50.937Z,10.10
2019-04-27T03:19:10.057Z,12.00
2019-04-27T03:21:49.463Z,10.80
2019-04-27T03:24:16.349Z,11.07
2019-04-27T03:26:50.221Z,11.27
2019-04-27T03:29:20.204Z,11.33
2019-04-27T03:31:53.825Z,13.33
2019-04-27T03:34:22.251Z,11.73
2019-04-27T03:36:51.564Z,12.60
2019-04-27T03:39:20.107Z,11.97
2019-04-27T03:41:52.550Z,8.70
2019-04-27T03:44:19.293Z,10.23
2019-04-27T03:46:49.609Z,11.03
2019-04-27T03:49:31.767Z,10.00
2019-04-27T03:51:54.527Z,8.67
2019-04-27T03:54:31.863Z,9.30
2019-04-27T03:57:24.929Z,10.60
2019-04-27T04:00:10.126Z,8.67
2019-04-27T04:02:40.438Z,9.07
2019-04-27T04:05:10.207Z,11.07
2019-04-27T04:07:40.155Z,14.57
2019-04-27T04:10:10.752Z,13.27
2019-04-27T04:12:56.309Z,10.50
2019-04-27T04:15:43.825Z,9.20
2019-04-27T04:18:11.456Z,9.17
2019-04-27T04:20:40.576Z,8.83
2019-04-27T04:23:10.626Z,14.23
2019-04-27T04:25:41.029Z,10.23
2019-04-27T04:28:09.534Z,8.80
2019-04-27T04:30:40.213Z,11.13
2019-04-27T04:33:10.117Z,10.67
2019-04-27T04:35:39.763Z,10.37
2019-04-27T04:38:10.381Z,10.30
2019-04-27T04:40:46.069Z,8.97
2019-04-27T04:43:20.261Z,9.00
2019-04-27T04:46:10.696Z,9.57
2019-04-27T04:48:37.272Z,11.37
2019-04-27T04:51:05.990Z,11.63
2019-04-27T04:53:34.363Z,9.80
2019-04-27T04:56:02.343Z,12.60
2019-04-27T04:58:30.237Z,9.17
2019-04-27T05:00:59.595Z,10.47
2019-04-27T05:03:28.659Z,8.67
2019-04-27T05:05:58.683Z,10.50
2019-04-27T05:08:26.639Z,11.83
2019-04-27T05:10:55.941Z,11.07
2019-04-27T05:13:24.622Z,10.57
2019-04-27T05:15:53.252Z,8.40
2019-04-27T05:18:20.719Z,9.10
2019-04-27T05:21:02.367Z,10.40
2019-04-27T05:23:33.017Z,11.97
2019-04-27T05:26:01.872Z,10.87
2019-04-27T05:28:31.611Z,12.97
2019-04-27T05:31:00.613Z,12.33
2019-04-27T05:33:28.883Z,13.17
2019-04-27T05:35:58.961Z,13.73
2019-04-27T05:38:26.945Z,12.37
2019-04-27T05:40:55.446Z,12.40
2019-04-27T05:43:30.150Z,12.70
2019-04-27T05:46:55.788Z,14.83
2019-04-27T05:49:36.255Z,13.07
2019-04-27T05:52:14.367Z,12.70
2019-04-27T05:54:40.280Z,13.80
2019-04-27T05:57:10.006Z,12.93
2019-04-27T05:59:39.779Z,12.80
2019-04-27T06:02:09.407Z,17.07
2019-04-27T06:04:37.008Z,11.97
2019-04-27T06:07:09.223Z,12.87
2019-04-27T06:09:39.164Z,13.47
2019-04-27T06:12:08.958Z,13.00
2019-04-27T06:14:36.952Z,15.30
2019-04-27T06:17:06.486Z,16.30
2019-04-27T06:19:34.721Z,13.97
2019-04-27T06:22:02.953Z,14.03
2019-04-27T06:24:32.347Z,15.17
2019-04-27T06:27:00.587Z,12.10
2019-04-27T06:29:29.380Z,10.57
2019-04-27T06:31:56.896Z,12.27
2019-04-27T06:34:25.489Z,11.27
2019-04-27T06:36:54.197Z,13.90
2019-04-27T06:39:23.558Z,11.53
2019-04-27T06:41:51.866Z,11.27
2019-04-27T06:44:20.167Z,13.80
2019-04-27T06:46:50.281Z,12.27
2019-04-27T06:49:19.988Z,12.10
2019-04-27T06:51:49.892Z,12.20
2019-04-27T06:54:21.043Z,12.23
2019-04-27T06:56:48.908Z,12.07
2019-04-27T06:59:18.625Z,12.47
2019-04-27T07:01:46.532Z,11.80
2019-04-27T07:04:15.600Z,11.83
2019-04-27T07:06:53.195Z,12.10
2019-04-27T07:09:14.235Z,11.20
2019-04-27T07:11:42.951Z,10.70
2019-04-27T07:14:11.693Z,11.23
2019-04-27T07:16:40.342Z,9.77
2019-04-27T07:19:09.404Z,10.13
2019-04-27T07:21:40.024Z,7.80
2019-04-27T07:24:08.969Z,7.63
2019-04-27T07:26:39.145Z,5.70
2019-04-27T07:29:06.542Z,6.40
2019-04-27T07:31:35.622Z,5.87
2019-04-27T07:34:05.740Z,7.63
2019-04-27T07:36:33.933Z,4.47
2019-04-27T07:39:02.218Z,6.97
2019-04-27T07:41:30.097Z,7.50
2019-04-27T07:44:23.102Z,3.97
2019-04-27T07:47:09.774Z,5.53
2019-04-27T07:49:39.094Z,3.53
2019-04-27T07:52:08.726Z,5.70
2019-04-27T07:54:38.458Z,4.10
2019-04-27T07:57:07.148Z,5.30
2019-04-27T07:59:34.823Z,4.40
2019-04-27T08:02:03.514Z,4.50
2019-04-27T08:04:31.140Z,4.73
2019-04-27T08:06:59.821Z,5.13
2019-04-27T08:09:29.096Z,5.33
2019-04-27T08:11:58.637Z,7.67
2019-04-27T08:14:26.567Z,7.97
2019-04-27T08:16:55.160Z,8.20
2019-04-27T08:19:23.542Z,7.03
2019-04-27T08:21:51.836Z,7.23
2019-04-27T08:24:20.527Z,7.27
2019-04-27T08:27:11.401Z,6.30
2019-04-27T08:29:59.166Z,3.97
2019-04-27T08:32:34.483Z,5.53
2019-04-27T08:35:03.164Z,3.77
2019-04-27T08:37:31.535Z,9.57
2019-04-27T08:40:00.150Z,3.20
2019-04-27T08:42:29.396Z,4.60
2019-04-27T08:44:59.339Z,7.07
2019-04-27T08:47:29.453Z,3.17
2019-04-27T08:49:59.123Z,3.53
2019-04-27T08:52:28.994Z,4.17
2019-04-27T08:54:59.412Z,5.07
2019-04-27T08:57:29.029Z,5.33
2019-04-27T08:59:59.671Z,7.03
2019-04-27T09:02:39.720Z,6.03
2019-04-27T09:04:59.642Z,5.60
2019-04-27T09:07:49.825Z,4.67
2019-04-27T09:10:38.780Z,3.43
2019-04-27T09:13:14.168Z,4.00
2019-04-27T09:15:50.317Z,6.10
2019-04-27T09:18:20.382Z,4.43
2019-04-27T09:20:58.937Z,3.67
2019-04-27T09:23:28.617Z,3.47
2019-04-27T09:25:59.353Z,3.20
2019-04-27T09:28:29.506Z,2.60
2019-04-27T09:30:58.675Z,2.27
2019-04-27T09:33:27.095Z,2.90
2019-04-27T09:35:57.115Z,1.80
2019-04-27T09:38:26.508Z,2.30
2019-04-27T09:40:58.155Z,1.90
2019-04-27T09:43:26.558Z,1.80
2019-04-27T09:45:55.781Z,2.27
2019-04-27T09:48:23.502Z,1.43
2019-04-27T09:50:52.112Z,1.00
2019-04-27T09:53:20.406Z,1.20
2019-04-27T09:55:48.712Z,1.30
2019-04-27T09:58:18.446Z,0.70
2019-04-27T10:00:48.723Z,0.73
2019-04-27T10:03:17.152Z,1.13
2019-04-27T10:05:45.958Z,2.50
2019-04-27T10:08:14.188Z,0.60
2019-04-27T10:10:42.264Z,0.60
2019-04-27T10:13:10.217Z,0.50
2019-04-27T10:15:38.165Z,1.20
2019-04-27T10:18:09.042Z,0.70
2019-04-27T10:20:40.555Z,0.83
2019-04-27T10:23:07.159Z,0.97
2019-04-27T10:25:37.363Z,1.47
2019-04-27T10:28:06.969Z,1.17
2019-04-27T10:30:36.008Z,1.93
2019-04-27T10:33:07.660Z,1.30
2019-04-27T10:35:36.318Z,1.17
2019-04-27T10:38:04.825Z,0.90
2019-04-27T10:40:33.138Z,2.10
2019-04-27T10:43:01.534Z,1.83
2019-04-27T10:45:30.093Z,1.00
2019-04-27T10:47:57.999Z,1.53
2019-04-27T10:50:26.535Z,2.57
2019-04-27T10:52:58.861Z,1.07
2019-04-27T10:55:26.228Z,0.87
2019-04-27T10:57:54.562Z,2.00
2019-04-27T11:00:32.265Z,1.20
2019-04-27T11:03:00.868Z,1.00
2019-04-27T11:05:46.045Z,1.03
2019-04-27T11:08:16.576Z,3.60
2019-04-27T11:10:47.326Z,2.57
2019-04-27T11:13:17.153Z,1.57
2019-04-27T11:15:46.068Z,1.23
2019-04-27T11:18:16.713Z,2.03
2019-04-27T11:20:46.727Z,1.27
2019-04-27T11:23:16.395Z,1.87
2019-04-27T11:25:46.651Z,2.37
2019-04-27T11:28:15.682Z,1.97
2019-04-27T11:30:43.477Z,2.10
2019-04-27T11:33:11.768Z,1.77
2019-04-27T11:35:54.757Z,2.57
2019-04-27T11:38:23.297Z,4.67
2019-04-27T11:40:50.834Z,5.13
2019-04-27T11:43:19.414Z,2.87
2019-04-27T11:45:48.119Z,2.50
2019-04-27T11:48:16.399Z,2.43
2019-04-27T11:50:45.876Z,3.27
2019-04-27T11:53:22.077Z,3.13
2019-04-27T11:55:44.551Z,3.33
2019-04-27T11:58:13.122Z,4.17
2019-04-27T12:00:43.001Z,5.07
2019-04-27T12:03:10.533Z,5.17
2019-04-27T12:05:38.669Z,2.70
2019-04-27T12:08:07.291Z,3.47
2019-04-27T12:10:36.358Z,6.10
2019-04-27T12:13:07.590Z,3.70
2019-04-27T12:15:36.278Z,4.50
2019-04-27T12:18:08.571Z,4.90
2019-04-27T12:20:35.774Z,4.70
2019-04-27T12:23:06.362Z,5.17
2019-04-27T12:25:37.033Z,4.97
2019-04-27T12:28:31.265Z,5.07
2019-04-27T12:31:21.868Z,5.57
2019-04-27T12:33:50.126Z,3.50
2019-04-27T12:36:18.636Z,2.37
2019-04-27T12:38:46.918Z,2.93
2019-04-27T12:41:15.096Z,2.53
2019-04-27T12:43:43.759Z,4.57
2019-04-27T12:46:12.079Z,2.70
2019-04-27T12:48:40.447Z,3.80
2019-04-27T12:51:09.133Z,6.30
2019-04-27T12:53:56.561Z,4.13
2019-04-27T12:56:53.279Z,4.30
2019-04-27T12:59:39.248Z,6.90
2019-04-27T13:02:07.462Z,6.37
2019-04-27T13:04:36.429Z,5.37
2019-04-27T13:07:06.034Z,3.73
2019-04-27T13:09:33.847Z,4.70
2019-04-27T13:12:02.980Z,4.33
2019-04-27T13:14:31.831Z,8.30
2019-04-27T13:17:00.208Z,4.57
2019-04-27T13:19:28.252Z,4.03
2019-04-27T13:21:56.434Z,3.80
2019-04-27T13:24:26.352Z,7.37
2019-04-27T13:26:55.959Z,7.70
2019-04-27T13:29:25.598Z,4.90
2019-04-27T13:31:53.592Z,8.53
2019-04-27T13:34:22.093Z,3.87
2019-04-27T13:36:50.462Z,8.23
2019-04-27T13:39:19.285Z,8.97
2019-04-27T13:41:47.758Z,4.47
2019-04-27T13:44:16.206Z,10.97
2019-04-27T13:47:02.853Z,3.17
2019-04-27T13:49:56.375Z,7.43
2019-04-27T13:52:29.799Z,5.10
2019-04-27T13:54:57.858Z,6.03
2019-04-27T13:57:27.047Z,5.87
2019-04-27T13:59:55.073Z,3.87
2019-04-27T14:02:24.262Z,4.70
2019-04-27T14:04:53.518Z,4.17
2019-04-27T14:07:22.048Z,4.77
2019-04-27T14:09:50.650Z,3.10
2019-04-27T14:12:21.423Z,4.07
2019-04-27T14:14:50.108Z,5.23
2019-04-27T14:17:19.330Z,6.37
2019-04-27T14:19:48.219Z,5.37
2019-04-27T14:22:18.093Z,4.80
2019-04-27T14:24:48.194Z,3.43
2019-04-27T14:27:17.134Z,3.37
2019-04-27T14:29:46.281Z,4.17
2019-04-27T14:32:14.567Z,2.47
2019-04-27T14:34:42.857Z,3.37
2019-04-27T14:37:11.556Z,2.20
2019-04-27T14:39:39.833Z,2.80
2019-04-27T14:42:08.511Z,3.47
2019-04-27T14:44:38.825Z,2.23
2019-04-27T14:47:08.128Z,1.80
2019-04-27T14:49:36.642Z,3.03
2019-04-27T14:52:05.443Z,4.27
2019-04-27T14:54:47.411Z,5.53
2019-04-27T14:57:03.554Z,3.70
2019-04-27T14:59:32.353Z,7.47
2019-04-27T15:02:01.012Z,6.10
2019-04-27T15:04:31.383Z,5.67
2019-04-27T15:07:00.894Z,4.10
2019-04-27T15:09:29.383Z,3.57
2019-04-27T15:11:58.475Z,2.20
2019-04-27T15:14:26.474Z,3.50
2019-04-27T15:16:56.483Z,4.80
2019-04-27T15:19:30.572Z,1.20
2019-04-27T15:22:01.186Z,1.93
2019-04-27T15:24:31.117Z,1.33
2019-04-27T15:27:02.187Z,3.17
2019-04-27T15:29:32.307Z,2.27
2019-04-27T15:32:04.304Z,2.20
2019-04-27T15:34:48.245Z,3.50
2019-04-27T15:37:23.773Z,4.50
2019-04-27T15:40:12.591Z,4.07
2019-04-27T15:42:51.722Z,6.83
2019-04-27T15:45:22.885Z,5.40
2019-04-27T15:47:54.235Z,11.50
2019-04-27T15:50:18.307Z,2.60
2019-04-27T15:52:48.644Z,3.93
2019-04-27T15:55:31.793Z,3.70
2019-04-27T15:57:47.055Z,2.90
2019-04-27T16:00:22.596Z,3.03
2019-04-27T16:02:52.764Z,3.83
2019-04-27T16:05:23.512Z,1.87
2019-04-27T16:07:51.361Z,3.63
2019-04-27T16:10:20.125Z,4.17
2019-04-27T16:13:06.010Z,2.70
2019-04-27T16:15:18.692Z,2.30
2019-04-27T16:17:53.297Z,4.33
2019-04-27T16:20:22.501Z,7.20
2019-04-27T16:22:48.904Z,3.33
2019-04-27T16:25:18.534Z,3.80
2019-04-27T16:27:48.899Z,2.50
2019-04-27T16:30:20.426Z,8.03
2019-04-27T16:32:48.088Z,7.80
2019-04-27T16:35:19.525Z,5.23
2019-04-27T16:38:04.822Z,7.03
2019-04-27T16:40:33.183Z,4.30
2019-04-27T16:43:01.662Z,4.80
2019-04-27T16:45:30.254Z,2.57
2019-04-27T16:47:59.847Z,2.73
2019-04-27T16:50:29.163Z,5.00
2019-04-27T16:53:00.928Z,5.13
2019-04-27T16:55:34.381Z,5.07
2019-04-27T16:57:59.990Z,3.63
2019-04-27T17:00:30.259Z,6.13
2019-04-27T17:05:34.455Z,6.43
2019-04-27T17:07:59.313Z,8.43
2019-04-27T17:10:29.132Z,4.50
2019-04-27T17:12:41.265Z,10.20
2019-04-27T17:12:59.113Z,6.90
2019-04-27T17:15:46.243Z,7.77
2019-04-27T17:18:52.859Z,4.67
2019-04-27T17:21:23.360Z,5.03
2019-04-27T17:23:52.329Z,3.90
2019-04-27T17:26:23.846Z,5.50
2019-04-27T17:28:56.749Z,4.60
2019-04-27T17:31:28.754Z,5.07
2019-04-27T17:34:00.558Z,9.10
2019-04-27T17:36:29.379Z,4.90
2019-04-27T17:38:58.338Z,6.50
2019-04-27T17:41:28.303Z,5.13
2019-04-27T17:43:59.113Z,10.00
2019-04-27T17:46:28.197Z,12.57
2019-04-27T17:48:59.974Z,7.97
2019-04-27T17:51:28.575Z,7.07
2019-04-27T17:53:58.649Z,5.73
2019-04-27T17:56:34.065Z,6.93
2019-04-27T17:58:58.575Z,8.93
2019-04-27T18:01:30.134Z,5.57
2019-04-27T18:03:59.975Z,7.00
2019-04-27T18:06:29.783Z,3.77
2019-04-27T18:09:00.754Z,5.47
2019-04-27T18:11:28.958Z,10.23
2019-04-27T18:14:00.420Z,8.10
2019-04-27T18:16:33.950Z,6.30
2019-04-27T18:19:14.049Z,5.53
2019-04-27T18:22:01.237Z,7.43
2019-04-27T18:24:40.766Z,10.57
2019-04-27T18:27:37.728Z,6.20
2019-04-27T18:30:28.084Z,4.90
2019-04-27T18:33:00.103Z,6.70
2019-04-27T18:35:29.231Z,2.83
2019-04-27T18:38:01.669Z,5.43
2019-04-27T18:40:32.026Z,4.33
2019-04-27T18:43:01.675Z,3.77
2019-04-27T18:45:28.450Z,6.27
2019-04-27T18:48:06.730Z,3.53
2019-04-27T18:50:48.439Z,19.57
2019-04-27T18:53:22.919Z,6.87
2019-04-27T18:55:50.002Z,4.23
2019-04-27T18:58:18.885Z,3.80
2019-04-27T19:00:48.430Z,4.43
2019-04-27T19:03:18.378Z,4.77
2019-04-27T19:05:48.070Z,6.13
2019-04-27T19:08:17.813Z,5.53
2019-04-27T19:10:46.401Z,3.30
2019-04-27T19:13:14.919Z,4.60
2019-04-27T19:15:43.573Z,6.23
2019-04-27T19:18:12.011Z,5.57
2019-04-27T19:20:40.015Z,4.17
2019-04-27T19:23:08.771Z,7.37
2019-04-27T19:26:02.271Z,5.23
2019-04-27T19:28:48.296Z,3.60
2019-04-27T19:31:22.376Z,5.50
2019-04-27T19:33:51.113Z,4.53
2019-04-27T19:36:19.304Z,5.97
2019-04-27T19:38:49.629Z,4.50
2019-04-27T19:41:18.484Z,4.40
2019-04-27T19:43:48.671Z,4.90
2019-04-27T19:46:17.480Z,4.20
2019-04-27T19:48:46.246Z,5.10
2019-04-27T19:51:15.035Z,6.97
2019-04-27T19:53:43.584Z,5.17
2019-04-27T19:56:12.301Z,6.47
2019-04-27T19:58:44.429Z,4.73
2019-04-27T20:01:17.063Z,2.13
2019-04-27T20:04:08.784Z,8.13
2019-04-27T20:06:38.452Z,4.30
2019-04-27T20:09:19.128Z,5.07
2019-04-27T20:11:47.269Z,7.90
2019-04-27T20:14:15.210Z,4.80
2019-04-27T20:16:43.855Z,5.87
2019-04-27T20:19:12.099Z,5.73
2019-04-27T20:21:40.801Z,7.53
2019-04-27T20:24:11.684Z,3.40
2019-04-27T20:26:40.242Z,6.07
2019-04-27T20:29:11.810Z,5.80
2019-04-27T20:31:41.089Z,3.33
2019-04-27T20:34:09.555Z,7.37
2019-04-27T20:36:38.369Z,9.10
2019-04-27T20:39:06.918Z,4.93
2019-04-27T20:41:35.163Z,5.13
2019-04-27T20:44:03.631Z,3.57
2019-04-27T20:46:31.484Z,4.73
2019-04-27T20:49:02.450Z,3.30
2019-04-27T20:51:50.995Z,9.47
2019-04-27T20:54:19.383Z,17.73
2019-04-27T20:56:47.620Z,19.57
2019-04-27T20:59:15.828Z,5.50
2019-04-27T21:01:44.060Z,9.13
2019-04-27T21:04:13.370Z,15.57
2019-04-27T21:06:44.955Z,11.27
2019-04-27T21:09:16.678Z,5.37
2019-04-27T21:11:45.809Z,23.30
2019-04-27T21:14:14.362Z,2.80
2019-04-27T21:16:42.600Z,18.17
2019-04-27T21:19:11.070Z,21.07
2019-04-27T21:21:40.985Z,16.13
2019-04-27T21:24:09.963Z,68.27
2019-04-27T21:26:38.693Z,12.97
2019-04-27T21:29:07.301Z,4.47
2019-04-27T21:31:35.650Z,2.87
2019-04-27T21:34:03.493Z,2.50
2019-04-27T21:36:32.071Z,3.80
2019-04-27T21:39:01.454Z,2.43
2019-04-27T21:41:31.105Z,4.73
2019-04-27T21:43:59.071Z,5.17
2019-04-27T21:46:27.351Z,5.27
2019-04-27T21:48:55.258Z,2.37
2019-04-27T21:51:23.494Z,3.73
2019-04-27T21:54:23.659Z,5.77
2019-04-27T21:56:52.354Z,2.60
2019-04-27T21:59:21.131Z,4.53
2019-04-27T22:01:51.634Z,5.47
2019-04-27T22:04:20.055Z,4.97
2019-04-27T22:06:48.240Z,3.10
2019-04-27T22:09:17.955Z,4.73
2019-04-27T22:11:46.715Z,7.30
2019-04-27T22:14:15.969Z,7.47
2019-04-27T22:16:45.906Z,7.03
2019-04-27T22:19:15.426Z,6.70
2019-04-27T22:21:43.915Z,6.43
2019-04-27T22:24:23.861Z,4.63
2019-04-27T22:26:52.449Z,3.67
2019-04-27T22:29:22.164Z,4.70
2019-04-27T22:31:51.803Z,3.50
2019-04-27T22:34:22.366Z,3.97
2019-04-27T22:36:50.994Z,2.80
2019-04-27T22:39:27.491Z,3.90
2019-04-27T22:42:09.858Z,4.27
2019-04-27T22:44:51.818Z,10.57
2019-04-27T22:47:21.580Z,6.77
2019-04-27T22:49:50.234Z,3.83
2019-04-27T22:52:17.721Z,3.77
2019-04-27T22:54:45.564Z,8.80
2019-04-27T22:57:28.586Z,5.27
2019-04-27T23:00:14.471Z,10.93
2019-04-27T23:02:52.281Z,22.50
2019-04-27T23:05:21.000Z,31.52
2019-04-27T23:07:49.044Z,9.57
2019-04-27T23:10:17.329Z,6.17
2019-04-27T23:12:45.527Z,8.70
2019-04-27T23:15:17.573Z,7.37
2019-04-27T23:17:54.755Z,5.33
2019-04-27T23:20:23.570Z,6.30
2019-04-27T23:22:51.449Z,7.37
2019-04-27T23:25:19.626Z,3.00
2019-04-27T23:27:47.995Z,8.00
2019-04-27T23:30:17.564Z,5.50
2019-04-27T23:32:47.833Z,3.57
2019-04-27T23:35:16.108Z,5.67
2019-04-27T23:37:44.369Z,6.57
2019-04-27T23:40:13.116Z,4.37
2019-04-27T23:42:41.753Z,5.87
2019-04-27T23:45:10.023Z,9.17
2019-04-27T23:47:39.089Z,4.90
2019-04-27T23:50:07.226Z,11.00
2019-04-27T23:52:53.106Z,7.07
2019-04-27T23:55:22.805Z,3.93
2019-04-27T23:57:50.721Z,3.93
